Aeroporto :
LOGIN :

Iscrizione | Disclaimer

   EN    FR    IT 

 










Sommario :    VFR   VFR Marginale   IFR   IFR Intensivo   IFR Molto Intensivo
Visibilità : 
Base nubi : 
>= 8 km
>= 3000ft
5 / 8 km
1000 / 3000 ft
1500m / 5 km
500 / 1000 ft
800 / 1500m
200 / 500 ft
< 800m
< 200 ft
Simboli :   Temporali  Nebbia  Neve Forte  Precipitazioni Forti  Vento > 20 kt
SIGMETs :   Varie  Temporali  Ghiacco  Turbolenza  Onda orograficha  Ceneri Vulcaniche






- Altitudine del aeroporto : 404 ft
- Codice IATA : ECN


LCEN - Ercan International

ULTIMO METAR :
  • 271620Z 29019KT 9999 FEW025 22/15 Q1012 NOSIG RMK RWY11 29017KT

METARs OBSOLETI :
  • 271550Z 29017KT CAVOK 24/15 Q1012 NOSIG RMK RWY11 30017KT
  • 271520Z 29017KT CAVOK 26/13 Q1012 NOSIG RMK RWY11 30015KT
  • 271450Z 31011KT 270V360 CAVOK 27/14 Q1012 NOSIG RMK RWY11 29015KT
  • 271420Z 34010KT 290V030 9999 FEW025 28/12 Q1012 NOSIG RMK RWY11 30014KT 260V330
  • 271350Z 29012KT 9999 FEW025 29/12 Q1012 NOSIG RMK RWY11 30012KT 270V330

TAF TAF LCEN
Valido dal 27 a 12 ore il 28 a 12 ore UTC


271040Z 2712/2812 30014KT 9999 FEW030



MetMap, La meteo Aeronautica in un colpo d'occhio ! - Copyright ORBIFLY Dicembre 2007 - Disclaimer

ORBIFLY MET'MAP TEAM :

Programmazione e sviluppo : Alexandra Zaïnal
Concezione : Baudouin d'Aumeries
Aiuto per la programmazione : Marc-Olivier Méhu
Supporto tecnico e logistico : Manuel Goepfert
Aiuto per la traduzione : Arnaldo La Scala

Contatto : metmap@orbifly.com




FONTI E CREDITI :

   NOAA